41.8°F
Current conditions from King Hill
Updated every 5 minutes
 
  Friday October 24, 2014

Station Historical Data
Daily Summary for November 12, 2011 Units:  Both    English   Metric
« Previous Day
Next Day »
Daily Weekly Monthly Yearly Custom
  High: Low: Average:
Temperature: 45.8 °F /  7.7 °C 32.2 °F /  0.1 °C 39.3 °F /  4.1 °C
Dew Point: 31.6 °F /  -0.2 °C 21.4 °F /  -5.9 °C 27.9 °F /  -2.3 °C
Humidity: 75% 52% 64%
Wind Speed: 14.0mph /  22.5km/h - 5.2mph /  8.4km/h
Wind Gust: 24.0mph /  38.6km/h - -
Wind- - SW
Pressure: 29.97 in /  1014.8 hPa 29.78 in /  1008.4 hPa -
Precipitation: 0.00 in /  0 mm    
Historical Graphs
 
 
Tabular Data for November 12, 2011
Time Temperature Dew Point Pressure Wind Wind Speed Wind Gust Humidity Daily Rainfall
00:00 33.8 °F /  1 °C 22.2 °F /  -5.4 °C 29.78in /  1008.4hPa WNW 4.0mph /  6.4km/h 12.0mph /  19.3km/h 62% 0.00in /  0mm
00:05 33.9 °F /  1.1 °C 22.3 °F /  -5.4 °C 29.78in /  1008.4hPa West 7.0mph /  11.3km/h 11.0mph /  17.7km/h 62% 0.00in /  0mm
00:10 33.9 °F /  1.1 °C 22.3 °F /  -5.4 °C 29.78in /  1008.4hPa West 3.0mph /  4.8km/h 16.0mph /  25.7km/h 62% 0.00in /  0mm
00:15 33.9 °F /  1.1 °C 22.6 °F /  -5.2 °C 29.79in /  1008.7hPa WNW 3.0mph /  4.8km/h 16.0mph /  25.7km/h 63% 0.00in /  0mm
00:20 33.9 °F /  1.1 °C 22.3 °F /  -5.4 °C 29.79in /  1008.7hPa West 4.0mph /  6.4km/h 11.0mph /  17.7km/h 62% 0.00in /  0mm
00:25 33.9 °F /  1.1 °C 22.6 °F /  -5.2 °C 29.79in /  1008.7hPa WSW 4.0mph /  6.4km/h 12.0mph /  19.3km/h 63% 0.00in /  0mm
00:30 33.9 °F /  1.1 °C 22.3 °F /  -5.4 °C 29.80in /  1009hPa WNW 6.0mph /  9.7km/h 12.0mph /  19.3km/h 62% 0.00in /  0mm
00:35 33.9 °F /  1.1 °C 22.6 °F /  -5.2 °C 29.80in /  1009hPa West 5.0mph /  8km/h 9.0mph /  14.5km/h 63% 0.00in /  0mm
00:40 34.0 °F /  1.1 °C 22.4 °F /  -5.3 °C 29.80in /  1009hPa West 7.0mph /  11.3km/h 10.0mph /  16.1km/h 62% 0.00in /  0mm
00:45 34.1 °F /  1.2 °C 22.4 °F /  -5.3 °C 29.80in /  1009hPa West 7.0mph /  11.3km/h 11.0mph /  17.7km/h 62% 0.00in /  0mm
00:50 34.1 °F /  1.2 °C 22.8 °F /  -5.1 °C 29.81in /  1009.4hPa West 3.0mph /  4.8km/h 11.0mph /  17.7km/h 63% 0.00in /  0mm
00:55 34.1 °F /  1.2 °C 22.4 °F /  -5.3 °C 29.81in /  1009.4hPa West 7.0mph /  11.3km/h 10.0mph /  16.1km/h 62% 0.00in /  0mm
01:00 34.1 °F /  1.2 °C 22.8 °F /  -5.1 °C 29.81in /  1009.4hPa West 7.0mph /  11.3km/h 11.0mph /  17.7km/h 63% 0.00in /  0mm
01:05 34.2 °F /  1.2 °C 22.9 °F /  -5.1 °C 29.81in /  1009.4hPa West 4.0mph /  6.4km/h 11.0mph /  17.7km/h 63% 0.00in /  0mm
01:15 34.2 °F /  1.2 °C 22.9 °F /  -5.1 °C 29.81in /  1009.4hPa WNW 7.0mph /  11.3km/h 12.0mph /  19.3km/h 63% 0.00in /  0mm
01:20 34.2 °F /  1.2 °C 22.5 °F /  -5.3 °C 29.81in /  1009.4hPa West 6.0mph /  9.7km/h 12.0mph /  19.3km/h 62% 0.00in /  0mm
01:25 34.3 °F /  1.3 °C 23.0 °F /  -5 °C 29.82in /  1009.7hPa West 5.0mph /  8km/h 15.0mph /  24.1km/h 63% 0.00in /  0mm
01:30 34.3 °F /  1.3 °C 23.0 °F /  -5 °C 29.81in /  1009.4hPa West 5.0mph /  8km/h 15.0mph /  24.1km/h 63% 0.00in /  0mm
01:35 34.1 °F /  1.2 °C 22.4 °F /  -5.3 °C 29.82in /  1009.7hPa West 5.0mph /  8km/h 13.0mph /  20.9km/h 62% 0.00in /  0mm
01:45 33.5 °F /  0.8 °C 21.9 °F /  -5.6 °C 29.82in /  1009.7hPa WSW 5.0mph /  8km/h 11.0mph /  17.7km/h 62% 0.00in /  0mm
01:50 33.3 °F /  0.7 °C 21.7 °F /  -5.7 °C 29.82in /  1009.7hPa WSW 6.0mph /  9.7km/h 11.0mph /  17.7km/h 62% 0.00in /  0mm
01:55 33.1 °F /  0.6 °C 21.9 °F /  -5.6 °C 29.83in /  1010hPa West 4.0mph /  6.4km/h 10.0mph /  16.1km/h 63% 0.00in /  0mm
02:00 32.9 °F /  0.5 °C 21.7 °F /  -5.7 °C 29.83in /  1010hPa WSW 2.0mph /  3.2km/h 11.0mph /  17.7km/h 63% 0.00in /  0mm
02:10 32.4 °F /  0.2 °C 21.6 °F /  -5.8 °C 29.83in /  1010hPa WSW 5.0mph /  8km/h 11.0mph /  17.7km/h 64% 0.00in /  0mm
02:15 32.8 °F /  0.4 °C 21.6 °F /  -5.8 °C 29.83in /  1010hPa West 8.0mph /  12.9km/h 13.0mph /  20.9km/h 63% 0.00in /  0mm
02:20 32.9 °F /  0.5 °C 22.1 °F /  -5.5 °C 29.84in /  1010.4hPa WSW 6.0mph /  9.7km/h 13.0mph /  20.9km/h 64% 0.00in /  0mm
02:25 32.9 °F /  0.5 °C 21.7 °F /  -5.7 °C 29.84in /  1010.4hPa West 4.0mph /  6.4km/h 11.0mph /  17.7km/h 63% 0.00in /  0mm
02:30 32.8 °F /  0.4 °C 21.6 °F /  -5.8 °C 29.84in /  1010.4hPa West 7.0mph /  11.3km/h 14.0mph /  22.5km/h 63% 0.00in /  0mm
02:35 32.6 °F /  0.3 °C 21.4 °F /  -5.9 °C 29.83in /  1010hPa West 2.0mph /  3.2km/h 14.0mph /  22.5km/h 63% 0.00in /  0mm
02:45 32.2 °F /  0.1 °C 21.4 °F /  -5.9 °C 29.84in /  1010.4hPa West 5.0mph /  8km/h 9.0mph /  14.5km/h 64% 0.00in /  0mm
02:50 32.2 °F /  0.1 °C 21.4 °F /  -5.9 °C 29.84in /  1010.4hPa West 7.0mph /  11.3km/h 13.0mph /  20.9km/h 64% 0.00in /  0mm
02:55 32.3 °F /  0.2 °C 21.5 °F /  -5.8 °C 29.84in /  1010.4hPa West 4.0mph /  6.4km/h 13.0mph /  20.9km/h 64% 0.00in /  0mm
03:00 32.4 °F /  0.2 °C 21.6 °F /  -5.8 °C 29.84in /  1010.4hPa WSW 4.0mph /  6.4km/h 9.0mph /  14.5km/h 64% 0.00in /  0mm
03:05 32.4 °F /  0.2 °C 21.6 °F /  -5.8 °C 29.84in /  1010.4hPa WSW 5.0mph /  8km/h 10.0mph /  16.1km/h 64% 0.00in /  0mm
03:10 32.4 °F /  0.2 °C 21.6 °F /  -5.8 °C 29.84in /  1010.4hPa WSW 3.0mph /  4.8km/h 10.0mph /  16.1km/h 64% 0.00in /  0mm
03:15 32.4 °F /  0.2 °C 22.0 °F /  -5.6 °C 29.84in /  1010.4hPa SW 3.0mph /  4.8km/h 7.0mph /  11.3km/h 65% 0.00in /  0mm
03:20 32.4 °F /  0.2 °C 22.3 °F /  -5.4 °C 29.85in /  1010.7hPa SSW 3.0mph /  4.8km/h 6.0mph /  9.7km/h 66% 0.00in /  0mm
03:25 32.7 °F /  0.4 °C 22.2 °F /  -5.4 °C 29.85in /  1010.7hPa SSW 5.0mph /  8km/h 8.0mph /  12.9km/h 65% 0.00in /  0mm
03:30 33.2 °F /  0.7 °C 22.3 °F /  -5.4 °C 29.85in /  1010.7hPa SW 2.0mph /  3.2km/h 9.0mph /  14.5km/h 64% 0.00in /  0mm
03:35 33.3 °F /  0.7 °C 22.4 °F /  -5.3 °C 29.85in /  1010.7hPa SW 1.0mph /  1.6km/h 9.0mph /  14.5km/h 64% 0.00in /  0mm
03:40 33.3 °F /  0.7 °C 22.4 °F /  -5.3 °C 29.85in /  1010.7hPa SW 2.0mph /  3.2km/h 5.0mph /  8km/h 64% 0.00in /  0mm
03:45 33.4 °F /  0.8 °C 22.5 °F /  -5.3 °C 29.85in /  1010.7hPa SW 1.0mph /  1.6km/h 5.0mph /  8km/h 64% 0.00in /  0mm
03:50 33.4 °F /  0.8 °C 22.5 °F /  -5.3 °C 29.85in /  1010.7hPa SW 2.0mph /  3.2km/h 5.0mph /  8km/h 64% 0.00in /  0mm
03:55 33.5 °F /  0.8 °C 22.6 °F /  -5.2 °C 29.84in /  1010.4hPa SW 2.0mph /  3.2km/h 7.0mph /  11.3km/h 64% 0.00in /  0mm
04:00 33.7 °F /  0.9 °C 22.8 °F /  -5.1 °C 29.84in /  1010.4hPa WSW 3.0mph /  4.8km/h 7.0mph /  11.3km/h 64% 0.00in /  0mm
04:05 33.8 °F /  1 °C 22.9 °F /  -5.1 °C 29.84in /  1010.4hPa SW 3.0mph /  4.8km/h 9.0mph /  14.5km/h 64% 0.00in /  0mm
04:10 34.0 °F /  1.1 °C 23.1 °F /  -4.9 °C 29.84in /  1010.4hPa SW 3.0mph /  4.8km/h 9.0mph /  14.5km/h 64% 0.00in /  0mm
04:15 34.2 °F /  1.2 °C 22.9 °F /  -5.1 °C 29.84in /  1010.4hPa WSW 3.0mph /  4.8km/h 9.0mph /  14.5km/h 63% 0.00in /  0mm
04:20 34.2 °F /  1.2 °C 23.3 °F /  -4.8 °C 29.85in /  1010.7hPa WSW 2.0mph /  3.2km/h 10.0mph /  16.1km/h 64% 0.00in /  0mm
04:25 34.3 °F /  1.3 °C 23.4 °F /  -4.8 °C 29.85in /  1010.7hPa WSW 3.0mph /  4.8km/h 10.0mph /  16.1km/h 64% 0.00in /  0mm
04:30 34.4 °F /  1.3 °C 23.5 °F /  -4.7 °C 29.85in /  1010.7hPa SW 2.0mph /  3.2km/h 7.0mph /  11.3km/h 64% 0.00in /  0mm
04:35 34.4 °F /  1.3 °C 23.5 °F /  -4.7 °C 29.85in /  1010.7hPa SW 3.0mph /  4.8km/h 9.0mph /  14.5km/h 64% 0.00in /  0mm
04:40 34.4 °F /  1.3 °C 23.5 °F /  -4.7 °C 29.85in /  1010.7hPa SW 2.0mph /  3.2km/h 9.0mph /  14.5km/h 64% 0.00in /  0mm
04:45 34.4 °F /  1.3 °C 23.5 °F /  -4.7 °C 29.85in /  1010.7hPa SW 5.0mph /  8km/h 9.0mph /  14.5km/h 64% 0.00in /  0mm
04:50 34.4 °F /  1.3 °C 23.5 °F /  -4.7 °C 29.85in /  1010.7hPa WSW 1.0mph /  1.6km/h 9.0mph /  14.5km/h 64% 0.00in /  0mm
04:55 34.4 °F /  1.3 °C 23.5 °F /  -4.7 °C 29.85in /  1010.7hPa SSW 3.0mph /  4.8km/h 8.0mph /  12.9km/h 64% 0.00in /  0mm
05:00 34.4 °F /  1.3 °C 23.9 °F /  -4.5 °C 29.85in /  1010.7hPa SSW 1.0mph /  1.6km/h 7.0mph /  11.3km/h 65% 0.00in /  0mm
05:05 34.2 °F /  1.2 °C 23.7 °F /  -4.6 °C 29.86in /  1011.1hPa SW 2.0mph /  3.2km/h 7.0mph /  11.3km/h 65% 0.00in /  0mm
05:10 34.0 °F /  1.1 °C 23.5 °F /  -4.7 °C 29.86in /  1011.1hPa SW 5.0mph /  8km/h 9.0mph /  14.5km/h 65% 0.00in /  0mm
05:15 33.9 °F /  1.1 °C 23.4 °F /  -4.8 °C 29.86in /  1011.1hPa SW 3.0mph /  4.8km/h 9.0mph /  14.5km/h 65% 0.00in /  0mm
05:20 33.8 °F /  1 °C 23.3 °F /  -4.8 °C 29.86in /  1011.1hPa SW 4.0mph /  6.4km/h 9.0mph /  14.5km/h 65% 0.00in /  0mm
05:25 33.9 °F /  1.1 °C 23.4 °F /  -4.8 °C 29.86in /  1011.1hPa SW 5.0mph /  8km/h 10.0mph /  16.1km/h 65% 0.00in /  0mm
05:30 34.1 °F /  1.2 °C 23.2 °F /  -4.9 °C 29.86in /  1011.1hPa SSW 4.0mph /  6.4km/h 10.0mph /  16.1km/h 64% 0.00in /  0mm
05:35 34.1 °F /  1.2 °C 23.2 °F /  -4.9 °C 29.86in /  1011.1hPa SSW 3.0mph /  4.8km/h 9.0mph /  14.5km/h 64% 0.00in /  0mm
05:40 34.0 °F /  1.1 °C 23.5 °F /  -4.7 °C 29.86in /  1011.1hPa SSW 2.0mph /  3.2km/h 10.0mph /  16.1km/h 65% 0.00in /  0mm
05:45 33.8 °F /  1 °C 23.6 °F /  -4.7 °C 29.86in /  1011.1hPa South 3.0mph /  4.8km/h 10.0mph /  16.1km/h 66% 0.00in /  0mm
05:50 33.8 °F /  1 °C 23.3 °F /  -4.8 °C 29.86in /  1011.1hPa SSW 5.0mph /  8km/h 10.0mph /  16.1km/h 65% 0.00in /  0mm
05:55 33.8 °F /  1 °C 23.3 °F /  -4.8 °C 29.86in /  1011.1hPa SSW 2.0mph /  3.2km/h 10.0mph /  16.1km/h 65% 0.00in /  0mm
06:00 33.7 °F /  0.9 °C 23.6 °F /  -4.7 °C 29.86in /  1011.1hPa SSW 4.0mph /  6.4km/h 10.0mph /  16.1km/h 66% 0.00in /  0mm
06:05 33.6 °F /  0.9 °C 23.5 °F /  -4.7 °C 29.86in /  1011.1hPa SSW 3.0mph /  4.8km/h 9.0mph /  14.5km/h 66% 0.00in /  0mm
06:10 33.4 °F /  0.8 °C 23.3 °F /  -4.8 °C 29.86in /  1011.1hPa SSW 5.0mph /  8km/h 11.0mph /  17.7km/h 66% 0.00in /  0mm
06:15 33.2 °F /  0.7 °C 23.4 °F /  -4.8 °C 29.86in /  1011.1hPa SSW 4.0mph /  6.4km/h 11.0mph /  17.7km/h 67% 0.00in /  0mm
06:20 33.0 °F /  0.6 °C 23.6 °F /  -4.7 °C 29.86in /  1011.1hPa SSW 4.0mph /  6.4km/h 8.0mph /  12.9km/h 68% 0.00in /  0mm
06:25 33.0 °F /  0.6 °C 23.6 °F /  -4.7 °C 29.86in /  1011.1hPa SSW 5.0mph /  8km/h 8.0mph /  12.9km/h 68% 0.00in /  0mm
06:30 33.1 °F /  0.6 °C 23.7 °F /  -4.6 °C 29.87in /  1011.4hPa SSW 3.0mph /  4.8km/h 11.0mph /  17.7km/h 68% 0.00in /  0mm
06:40 33.3 °F /  0.7 °C 24.2 °F /  -4.3 °C 29.87in /  1011.4hPa SSW 5.0mph /  8km/h 12.0mph /  19.3km/h 69% 0.00in /  0mm
06:45 33.4 °F /  0.8 °C 24.3 °F /  -4.3 °C 29.87in /  1011.4hPa SSW 5.0mph /  8km/h 12.0mph /  19.3km/h 69% 0.00in /  0mm
06:50 33.5 °F /  0.8 °C 24.4 °F /  -4.2 °C 29.87in /  1011.4hPa SSW 7.0mph /  11.3km/h 12.0mph /  19.3km/h 69% 0.00in /  0mm
06:55 33.5 °F /  0.8 °C 24.4 °F /  -4.2 °C 29.87in /  1011.4hPa SSW 4.0mph /  6.4km/h 12.0mph /  19.3km/h 69% 0.00in /  0mm
07:00 33.4 °F /  0.8 °C 24.7 °F /  -4.1 °C 29.87in /  1011.4hPa SSW 6.0mph /  9.7km/h 12.0mph /  19.3km/h 70% 0.00in /  0mm
07:05 33.4 °F /  0.8 °C 24.7 °F /  -4.1 °C 29.87in /  1011.4hPa SSW 2.0mph /  3.2km/h 11.0mph /  17.7km/h 70% 0.00in /  0mm
07:10 33.4 °F /  0.8 °C 24.7 °F /  -4.1 °C 29.87in /  1011.4hPa SSW 3.0mph /  4.8km/h 12.0mph /  19.3km/h 70% 0.00in /  0mm
07:15 33.4 °F /  0.8 °C 25.0 °F /  -3.9 °C 29.86in /  1011.1hPa SSW 5.0mph /  8km/h 12.0mph /  19.3km/h 71% 0.00in /  0mm
07:20 33.5 °F /  0.8 °C 24.8 °F /  -4 °C 29.86in /  1011.1hPa SSW 2.0mph /  3.2km/h 8.0mph /  12.9km/h 70% 0.00in /  0mm
07:25 33.7 °F /  0.9 °C 25.0 °F /  -3.9 °C 29.86in /  1011.1hPa SSW 7.0mph /  11.3km/h 12.0mph /  19.3km/h 70% 0.00in /  0mm
07:30 34.0 °F /  1.1 °C 25.2 °F /  -3.8 °C 29.86in /  1011.1hPa SSW 4.0mph /  6.4km/h 12.0mph /  19.3km/h 70% 0.00in /  0mm
07:40 34.4 °F /  1.3 °C 25.6 °F /  -3.6 °C 29.86in /  1011.1hPa SSW 6.0mph /  9.7km/h 13.0mph /  20.9km/h 70% 0.00in /  0mm
07:45 34.5 °F /  1.4 °C 26.1 °F /  -3.3 °C 29.87in /  1011.4hPa SSW 6.0mph /  9.7km/h 12.0mph /  19.3km/h 71% 0.00in /  0mm
07:50 34.7 °F /  1.5 °C 26.3 °F /  -3.2 °C 29.86in /  1011.1hPa SSW 7.0mph /  11.3km/h 13.0mph /  20.9km/h 71% 0.00in /  0mm
07:55 34.8 °F /  1.6 °C 26.4 °F /  -3.1 °C 29.87in /  1011.4hPa SSW 5.0mph /  8km/h 13.0mph /  20.9km/h 71% 0.00in /  0mm
08:00 35.1 °F /  1.7 °C 27.0 °F /  -2.8 °C 29.86in /  1011.1hPa SSW 5.0mph /  8km/h 13.0mph /  20.9km/h 72% 0.00in /  0mm
08:05 35.3 °F /  1.8 °C 27.2 °F /  -2.7 °C 29.86in /  1011.1hPa SSW 6.0mph /  9.7km/h 12.0mph /  19.3km/h 72% 0.00in /  0mm
08:10 35.5 °F /  1.9 °C 27.7 °F /  -2.4 °C 29.86in /  1011.1hPa SSW 8.0mph /  12.9km/h 15.0mph /  24.1km/h 73% 0.00in /  0mm
08:15 35.7 °F /  2.1 °C 27.9 °F /  -2.3 °C 29.86in /  1011.1hPa SSW 6.0mph /  9.7km/h 15.0mph /  24.1km/h 73% 0.00in /  0mm
08:20 35.9 °F /  2.2 °C 28.4 °F /  -2 °C 29.86in /  1011.1hPa SSW 5.0mph /  8km/h 17.0mph /  27.4km/h 74% 0.00in /  0mm
08:25 36.0 °F /  2.2 °C 28.5 °F /  -1.9 °C 29.85in /  1010.7hPa SSW 7.0mph /  11.3km/h 17.0mph /  27.4km/h 74% 0.00in /  0mm
08:30 36.1 °F /  2.3 °C 28.6 °F /  -1.9 °C 29.85in /  1010.7hPa SSW 6.0mph /  9.7km/h 14.0mph /  22.5km/h 74% 0.00in /  0mm
08:35 36.2 °F /  2.3 °C 28.7 °F /  -1.8 °C 29.86in /  1011.1hPa SSW 11.0mph /  17.7km/h 19.0mph /  30.6km/h 74% 0.00in /  0mm
08:45 36.5 °F /  2.5 °C 29.3 °F /  -1.5 °C 29.86in /  1011.1hPa SSW 5.0mph /  8km/h 17.0mph /  27.4km/h 75% 0.00in /  0mm
08:50 36.7 °F /  2.6 °C 29.5 °F /  -1.4 °C 29.86in /  1011.1hPa SSW 7.0mph /  11.3km/h 15.0mph /  24.1km/h 75% 0.00in /  0mm
08:55 36.7 °F /  2.6 °C 29.2 °F /  -1.6 °C 29.86in /  1011.1hPa SSW 8.0mph /  12.9km/h 17.0mph /  27.4km/h 74% 0.00in /  0mm
09:00 36.6 °F /  2.6 °C 29.1 °F /  -1.6 °C 29.86in /  1011.1hPa SW 6.0mph /  9.7km/h 17.0mph /  27.4km/h 74% 0.00in /  0mm
09:05 36.9 °F /  2.7 °C 29.4 °F /  -1.4 °C 29.86in /  1011.1hPa SSW 6.0mph /  9.7km/h 17.0mph /  27.4km/h 74% 0.00in /  0mm
09:10 37.6 °F /  3.1 °C 29.7 °F /  -1.3 °C 29.85in /  1010.7hPa SSW 7.0mph /  11.3km/h 15.0mph /  24.1km/h 73% 0.00in /  0mm
09:15 38.4 °F /  3.6 °C 29.8 °F /  -1.2 °C 29.86in /  1011.1hPa SSW 9.0mph /  14.5km/h 16.0mph /  25.7km/h 71% 0.00in /  0mm
09:20 38.9 °F /  3.8 °C 29.6 °F /  -1.3 °C 29.85in /  1010.7hPa SSW 9.0mph /  14.5km/h 18.0mph /  29km/h 69% 0.00in /  0mm
09:25 38.9 °F /  3.8 °C 29.6 °F /  -1.3 °C 29.85in /  1010.7hPa SSW 8.0mph /  12.9km/h 18.0mph /  29km/h 69% 0.00in /  0mm
09:30 38.8 °F /  3.8 °C 29.1 °F /  -1.6 °C 29.85in /  1010.7hPa SSW 9.0mph /  14.5km/h 18.0mph /  29km/h 68% 0.00in /  0mm
09:35 38.8 °F /  3.8 °C 29.1 °F /  -1.6 °C 29.85in /  1010.7hPa SSW 6.0mph /  9.7km/h 16.0mph /  25.7km/h 68% 0.00in /  0mm
09:40 38.8 °F /  3.8 °C 29.1 °F /  -1.6 °C 29.84in /  1010.4hPa SSW 9.0mph /  14.5km/h 19.0mph /  30.6km/h 68% 0.00in /  0mm
09:45 39.5 °F /  4.2 °C 29.8 °F /  -1.2 °C 29.85in /  1010.7hPa SSW 6.0mph /  9.7km/h 22.0mph /  35.4km/h 68% 0.00in /  0mm
09:50 39.9 °F /  4.4 °C 29.8 °F /  -1.2 °C 29.84in /  1010.4hPa SSW 5.0mph /  8km/h 22.0mph /  35.4km/h 67% 0.00in /  0mm
09:55 40.1 °F /  4.5 °C 29.7 °F /  -1.3 °C 29.84in /  1010.4hPa SSW 8.0mph /  12.9km/h 20.0mph /  32.2km/h 66% 0.00in /  0mm
10:00 40.3 °F /  4.6 °C 29.5 °F /  -1.4 °C 29.84in /  1010.4hPa SSW 10.0mph /  16.1km/h 16.0mph /  25.7km/h 65% 0.00in /  0mm
10:05 40.2 °F /  4.6 °C 29.4 °F /  -1.4 °C 29.85in /  1010.7hPa SSW 11.0mph /  17.7km/h 22.0mph /  35.4km/h 65% 0.00in /  0mm
10:10 39.9 °F /  4.4 °C 29.1 °F /  -1.6 °C 29.85in /  1010.7hPa SSW 12.0mph /  19.3km/h 22.0mph /  35.4km/h 65% 0.00in /  0mm
10:15 39.9 °F /  4.4 °C 29.5 °F /  -1.4 °C 29.84in /  1010.4hPa SSW 10.0mph /  16.1km/h 22.0mph /  35.4km/h 66% 0.00in /  0mm
10:20 39.7 °F /  4.3 °C 29.6 °F /  -1.3 °C 29.84in /  1010.4hPa SSW 7.0mph /  11.3km/h 18.0mph /  29km/h 67% 0.00in /  0mm
10:30 39.9 °F /  4.4 °C 29.5 °F /  -1.4 °C 29.83in /  1010hPa South 6.0mph /  9.7km/h 17.0mph /  27.4km/h 66% 0.00in /  0mm
10:35 39.8 °F /  4.3 °C 29.0 °F /  -1.7 °C 29.83in /  1010hPa SSW 11.0mph /  17.7km/h 20.0mph /  32.2km/h 65% 0.00in /  0mm
10:45 40.2 °F /  4.6 °C 29.8 °F /  -1.2 °C 29.83in /  1010hPa SW 8.0mph /  12.9km/h 19.0mph /  30.6km/h 66% 0.00in /  0mm
10:50 40.5 °F /  4.7 °C 29.7 °F /  -1.3 °C 29.83in /  1010hPa SSW 11.0mph /  17.7km/h 21.0mph /  33.8km/h 65% 0.00in /  0mm
10:55 40.6 °F /  4.8 °C 29.8 °F /  -1.2 °C 29.82in /  1009.7hPa SSW 8.0mph /  12.9km/h 21.0mph /  33.8km/h 65% 0.00in /  0mm
11:00 40.9 °F /  4.9 °C 30.4 °F /  -0.9 °C 29.82in /  1009.7hPa SSW 9.0mph /  14.5km/h 18.0mph /  29km/h 66% 0.00in /  0mm
11:05 40.7 °F /  4.8 °C 30.2 °F /  -1 °C 29.82in /  1009.7hPa SSW 9.0mph /  14.5km/h 16.0mph /  25.7km/h 66% 0.00in /  0mm
11:10 40.4 °F /  4.7 °C 29.9 °F /  -1.2 °C 29.82in /  1009.7hPa SSW 6.0mph /  9.7km/h 23.0mph /  37km/h 66% 0.00in /  0mm
11:15 40.7 °F /  4.8 °C 30.2 °F /  -1 °C 29.82in /  1009.7hPa SSW 7.0mph /  11.3km/h 23.0mph /  37km/h 66% 0.00in /  0mm
11:20 40.7 °F /  4.8 °C 30.2 °F /  -1 °C 29.82in /  1009.7hPa SSW 6.0mph /  9.7km/h 17.0mph /  27.4km/h 66% 0.00in /  0mm
11:25 40.7 °F /  4.8 °C 30.2 °F /  -1 °C 29.82in /  1009.7hPa SSW 6.0mph /  9.7km/h 17.0mph /  27.4km/h 66% 0.00in /  0mm
11:30 41.0 °F /  5 °C 30.1 °F /  -1.1 °C 29.82in /  1009.7hPa SSW 9.0mph /  14.5km/h 18.0mph /  29km/h 65% 0.00in /  0mm
11:35 41.0 °F /  5 °C 30.1 °F /  -1.1 °C 29.81in /  1009.4hPa SSW 9.0mph /  14.5km/h 19.0mph /  30.6km/h 65% 0.00in /  0mm
11:40 41.0 °F /  5 °C 29.8 °F /  -1.2 °C 29.81in /  1009.4hPa SSW 10.0mph /  16.1km/h 20.0mph /  32.2km/h 64% 0.00in /  0mm
11:50 41.1 °F /  5.1 °C 29.5 °F /  -1.4 °C 29.82in /  1009.7hPa SSW 14.0mph /  22.5km/h 24.0mph /  38.6km/h 63% 0.00in /  0mm
11:55 41.1 °F /  5.1 °C 29.5 °F /  -1.4 °C 29.82in /  1009.7hPa SW 12.0mph /  19.3km/h 22.0mph /  35.4km/h 63% 0.00in /  0mm
12:00 41.2 °F /  5.1 °C 29.6 °F /  -1.3 °C 29.81in /  1009.4hPa SSW 7.0mph /  11.3km/h 21.0mph /  33.8km/h 63% 0.00in /  0mm
12:05 41.4 °F /  5.2 °C 29.4 °F /  -1.4 °C 29.81in /  1009.4hPa SW 12.0mph /  19.3km/h 19.0mph /  30.6km/h 62% 0.00in /  0mm
12:10 42.3 °F /  5.7 °C 29.8 °F /  -1.2 °C 29.81in /  1009.4hPa SW 11.0mph /  17.7km/h 20.0mph /  32.2km/h 61% 0.00in /  0mm
12:15 43.1 °F /  6.2 °C 29.7 °F /  -1.3 °C 29.81in /  1009.4hPa SSW 13.0mph /  20.9km/h 23.0mph /  37km/h 59% 0.00in /  0mm
12:20 43.3 °F /  6.3 °C 30.4 °F /  -0.9 °C 29.82in /  1009.7hPa SSW 9.0mph /  14.5km/h 23.0mph /  37km/h 60% 0.00in /  0mm
12:25 44.3 °F /  6.8 °C 30.0 °F /  -1.1 °C 29.81in /  1009.4hPa SW 9.0mph /  14.5km/h 23.0mph /  37km/h 57% 0.00in /  0mm
12:30 44.1 °F /  6.7 °C 29.4 °F /  -1.4 °C 29.81in /  1009.4hPa SSW 9.0mph /  14.5km/h 19.0mph /  30.6km/h 56% 0.00in /  0mm
12:35 43.2 °F /  6.2 °C 29.0 °F /  -1.7 °C 29.81in /  1009.4hPa SSW 11.0mph /  17.7km/h 22.0mph /  35.4km/h 57% 0.00in /  0mm
12:40 42.8 °F /  6 °C 29.0 °F /  -1.7 °C 29.81in /  1009.4hPa SSW 7.0mph /  11.3km/h 22.0mph /  35.4km/h 58% 0.00in /  0mm
12:45 42.9 °F /  6.1 °C 29.1 °F /  -1.6 °C 29.81in /  1009.4hPa SW 7.0mph /  11.3km/h 18.0mph /  29km/h 58% 0.00in /  0mm
12:50 42.8 °F /  6 °C 28.6 °F /  -1.9 °C 29.81in /  1009.4hPa SSW 10.0mph /  16.1km/h 18.0mph /  29km/h 57% 0.00in /  0mm
12:55 42.6 °F /  5.9 °C 28.9 °F /  -1.7 °C 29.81in /  1009.4hPa SSW 10.0mph /  16.1km/h 20.0mph /  32.2km/h 58% 0.00in /  0mm
13:00 43.8 °F /  6.6 °C 30.0 °F /  -1.1 °C 29.81in /  1009.4hPa SSW 4.0mph /  6.4km/h 20.0mph /  32.2km/h 58% 0.00in /  0mm
13:05 45.0 °F /  7.2 °C 29.4 °F /  -1.4 °C 29.81in /  1009.4hPa SSW 11.0mph /  17.7km/h 20.0mph /  32.2km/h 54% 0.00in /  0mm
13:10 45.6 °F /  7.6 °C 29.9 °F /  -1.2 °C 29.81in /  1009.4hPa SW 9.0mph /  14.5km/h 20.0mph /  32.2km/h 54% 0.00in /  0mm
13:15 45.8 °F /  7.7 °C 29.2 °F /  -1.6 °C 29.81in /  1009.4hPa SSW 12.0mph /  19.3km/h 20.0mph /  32.2km/h 52% 0.00in /  0mm
13:20 44.7 °F /  7.1 °C 28.6 °F /  -1.9 °C 29.81in /  1009.4hPa SSW 11.0mph /  17.7km/h 20.0mph /  32.2km/h 53% 0.00in /  0mm
13:25 44.1 °F /  6.7 °C 28.5 °F /  -1.9 °C 29.81in /  1009.4hPa SSW 7.0mph /  11.3km/h 18.0mph /  29km/h 54% 0.00in /  0mm
13:30 44.2 °F /  6.8 °C 28.6 °F /  -1.9 °C 29.81in /  1009.4hPa SSW 7.0mph /  11.3km/h 18.0mph /  29km/h 54% 0.00in /  0mm
13:35 44.1 °F /  6.7 °C 28.5 °F /  -1.9 °C 29.81in /  1009.4hPa SSW 11.0mph /  17.7km/h 18.0mph /  29km/h 54% 0.00in /  0mm
13:40 44.1 °F /  6.7 °C 29.0 °F /  -1.7 °C 29.81in /  1009.4hPa SSW 5.0mph /  8km/h 18.0mph /  29km/h 55% 0.00in /  0mm
13:45 44.0 °F /  6.7 °C 28.4 °F /  -2 °C 29.81in /  1009.4hPa SSW 9.0mph /  14.5km/h 17.0mph /  27.4km/h 54% 0.00in /  0mm
13:50 43.8 °F /  6.6 °C 28.7 °F /  -1.8 °C 29.81in /  1009.4hPa SSW 9.0mph /  14.5km/h 17.0mph /  27.4km/h 55% 0.00in /  0mm
13:55 43.7 °F /  6.5 °C 29.0 °F /  -1.7 °C 29.81in /  1009.4hPa SSW 9.0mph /  14.5km/h 18.0mph /  29km/h 56% 0.00in /  0mm
14:00 43.9 °F /  6.6 °C 29.2 °F /  -1.6 °C 29.81in /  1009.4hPa SSW 6.0mph /  9.7km/h 18.0mph /  29km/h 56% 0.00in /  0mm
14:05 44.1 °F /  6.7 °C 29.4 °F /  -1.4 °C 29.81in /  1009.4hPa SSW 7.0mph /  11.3km/h 18.0mph /  29km/h 56% 0.00in /  0mm
14:10 44.2 °F /  6.8 °C 29.1 °F /  -1.6 °C 29.81in /  1009.4hPa SSW 8.0mph /  12.9km/h 18.0mph /  29km/h 55% 0.00in /  0mm
14:15 44.3 °F /  6.8 °C 29.2 °F /  -1.6 °C 29.81in /  1009.4hPa SW 9.0mph /  14.5km/h 17.0mph /  27.4km/h 55% 0.00in /  0mm
14:20 44.6 °F /  7 °C 29.4 °F /  -1.4 °C 29.81in /  1009.4hPa SSW 6.0mph /  9.7km/h 17.0mph /  27.4km/h 55% 0.00in /  0mm
14:25 44.9 °F /  7.2 °C 29.3 °F /  -1.5 °C 29.82in /  1009.7hPa SSW 5.0mph /  8km/h 16.0mph /  25.7km/h 54% 0.00in /  0mm
14:30 44.7 °F /  7.1 °C 29.5 °F /  -1.4 °C 29.82in /  1009.7hPa SSW 8.0mph /  12.9km/h 15.0mph /  24.1km/h 55% 0.00in /  0mm
14:35 44.4 °F /  6.9 °C 29.2 °F /  -1.6 °C 29.82in /  1009.7hPa SSW 8.0mph /  12.9km/h 16.0mph /  25.7km/h 55% 0.00in /  0mm
14:40 44.3 °F /  6.8 °C 29.2 °F /  -1.6 °C 29.82in /  1009.7hPa SSW 7.0mph /  11.3km/h 16.0mph /  25.7km/h 55% 0.00in /  0mm
14:45 44.3 °F /  6.8 °C 29.6 °F /  -1.3 °C 29.83in /  1010hPa SSW 5.0mph /  8km/h 13.0mph /  20.9km/h 56% 0.00in /  0mm
14:50 44.4 °F /  6.9 °C 29.2 °F /  -1.6 °C 29.83in /  1010hPa SW 8.0mph /  12.9km/h 16.0mph /  25.7km/h 55% 0.00in /  0mm
14:55 44.4 °F /  6.9 °C 29.7 °F /  -1.3 °C 29.83in /  1010hPa SW 7.0mph /  11.3km/h 16.0mph /  25.7km/h 56% 0.00in /  0mm
15:00 44.4 °F /  6.9 °C 30.1 °F /  -1.1 °C 29.83in /  1010hPa SSW 5.0mph /  8km/h 16.0mph /  25.7km/h 57% 0.00in /  0mm
15:05 44.3 °F /  6.8 °C 30.0 °F /  -1.1 °C 29.83in /  1010hPa SW 6.0mph /  9.7km/h 18.0mph /  29km/h 57% 0.00in /  0mm
15:10 44.3 °F /  6.8 °C 30.0 °F /  -1.1 °C 29.83in /  1010hPa SW 4.0mph /  6.4km/h 18.0mph /  29km/h 57% 0.00in /  0mm
15:15 44.2 °F /  6.8 °C 29.9 °F /  -1.2 °C 29.84in /  1010.4hPa SW 4.0mph /  6.4km/h 10.0mph /  16.1km/h 57% 0.00in /  0mm
15:20 44.2 °F /  6.8 °C 29.9 °F /  -1.2 °C 29.84in /  1010.4hPa SW 9.0mph /  14.5km/h 17.0mph /  27.4km/h 57% 0.00in /  0mm
15:25 44.2 °F /  6.8 °C 29.9 °F /  -1.2 °C 29.84in /  1010.4hPa SW 7.0mph /  11.3km/h 17.0mph /  27.4km/h 57% 0.00in /  0mm
15:30 44.1 °F /  6.7 °C 29.8 °F /  -1.2 °C 29.85in /  1010.7hPa SW 8.0mph /  12.9km/h 16.0mph /  25.7km/h 57% 0.00in /  0mm
15:35 44.1 °F /  6.7 °C 29.8 °F /  -1.2 °C 29.85in /  1010.7hPa SSW 6.0mph /  9.7km/h 15.0mph /  24.1km/h 57% 0.00in /  0mm
15:40 44.1 °F /  6.7 °C 29.8 °F /  -1.2 °C 29.85in /  1010.7hPa SW 7.0mph /  11.3km/h 15.0mph /  24.1km/h 57% 0.00in /  0mm
15:45 44.1 °F /  6.7 °C 29.8 °F /  -1.2 °C 29.85in /  1010.7hPa SW 9.0mph /  14.5km/h 15.0mph /  24.1km/h 57% 0.00in /  0mm
15:50 44.1 °F /  6.7 °C 29.8 °F /  -1.2 °C 29.86in /  1011.1hPa SW 8.0mph /  12.9km/h 14.0mph /  22.5km/h 57% 0.00in /  0mm
15:55 44.1 °F /  6.7 °C 29.8 °F /  -1.2 °C 29.86in /  1011.1hPa SW 7.0mph /  11.3km/h 14.0mph /  22.5km/h 57% 0.00in /  0mm
16:00 44.0 °F /  6.7 °C 29.7 °F /  -1.3 °C 29.86in /  1011.1hPa SW 5.0mph /  8km/h 14.0mph /  22.5km/h 57% 0.00in /  0mm
16:05 44.0 °F /  6.7 °C 30.2 °F /  -1 °C 29.87in /  1011.4hPa SW 3.0mph /  4.8km/h 12.0mph /  19.3km/h 58% 0.00in /  0mm
16:10 43.9 °F /  6.6 °C 30.1 °F /  -1.1 °C 29.87in /  1011.4hPa SW 6.0mph /  9.7km/h 12.0mph /  19.3km/h 58% 0.00in /  0mm
16:15 44.0 °F /  6.7 °C 30.2 °F /  -1 °C 29.87in /  1011.4hPa SW 8.0mph /  12.9km/h 16.0mph /  25.7km/h 58% 0.00in /  0mm
16:20 44.0 °F /  6.7 °C 30.2 °F /  -1 °C 29.87in /  1011.4hPa SW 6.0mph /  9.7km/h 16.0mph /  25.7km/h 58% 0.00in /  0mm
16:25 44.0 °F /  6.7 °C 30.2 °F /  -1 °C 29.87in /  1011.4hPa SSW 6.0mph /  9.7km/h 16.0mph /  25.7km/h 58% 0.00in /  0mm
16:30 44.0 °F /  6.7 °C 30.2 °F /  -1 °C 29.87in /  1011.4hPa SSW 5.0mph /  8km/h 16.0mph /  25.7km/h 58% 0.00in /  0mm
16:35 44.0 °F /  6.7 °C 30.2 °F /  -1 °C 29.88in /  1011.7hPa SW 7.0mph /  11.3km/h 14.0mph /  22.5km/h 58% 0.00in /  0mm
16:45 44.1 °F /  6.7 °C 30.3 °F /  -0.9 °C 29.88in /  1011.7hPa SSW 6.0mph /  9.7km/h 14.0mph /  22.5km/h 58% 0.00in /  0mm
16:50 44.0 °F /  6.7 °C 30.2 °F /  -1 °C 29.88in /  1011.7hPa SSW 6.0mph /  9.7km/h 12.0mph /  19.3km/h 58% 0.00in /  0mm
16:55 44.0 °F /  6.7 °C 30.6 °F /  -0.8 °C 29.88in /  1011.7hPa SSW 4.0mph /  6.4km/h 12.0mph /  19.3km/h 59% 0.00in /  0mm
17:00 44.0 °F /  6.7 °C 30.6 °F /  -0.8 °C 29.89in /  1012.1hPa SSW 5.0mph /  8km/h 11.0mph /  17.7km/h 59% 0.00in /  0mm
17:05 44.0 °F /  6.7 °C 30.6 °F /  -0.8 °C 29.89in /  1012.1hPa SSW 6.0mph /  9.7km/h 11.0mph /  17.7km/h 59% 0.00in /  0mm
17:10 44.0 °F /  6.7 °C 30.6 °F /  -0.8 °C 29.89in /  1012.1hPa SSW 6.0mph /  9.7km/h 12.0mph /  19.3km/h 59% 0.00in /  0mm
17:15 44.2 °F /  6.8 °C 30.8 °F /  -0.7 °C 29.89in /  1012.1hPa SW 6.0mph /  9.7km/h 12.0mph /  19.3km/h 59% 0.00in /  0mm
17:20 44.3 °F /  6.8 °C 30.9 °F /  -0.6 °C 29.89in /  1012.1hPa SW 6.0mph /  9.7km/h 10.0mph /  16.1km/h 59% 0.00in /  0mm
17:25 44.3 °F /  6.8 °C 30.9 °F /  -0.6 °C 29.89in /  1012.1hPa SSW 4.0mph /  6.4km/h 10.0mph /  16.1km/h 59% 0.00in /  0mm
17:30 44.2 °F /  6.8 °C 31.2 °F /  -0.4 °C 29.89in /  1012.1hPa SSW 4.0mph /  6.4km/h 9.0mph /  14.5km/h 60% 0.00in /  0mm
17:35 43.9 °F /  6.6 °C 30.9 °F /  -0.6 °C 29.90in /  1012.4hPa SW 3.0mph /  4.8km/h 13.0mph /  20.9km/h 60% 0.00in /  0mm
17:40 43.9 °F /  6.6 °C 30.9 °F /  -0.6 °C 29.90in /  1012.4hPa SSW 3.0mph /  4.8km/h 13.0mph /  20.9km/h 60% 0.00in /  0mm
17:45 43.8 °F /  6.6 °C 31.2 °F /  -0.4 °C 29.90in /  1012.4hPa SSW 3.0mph /  4.8km/h 9.0mph /  14.5km/h 61% 0.00in /  0mm
17:50 43.7 °F /  6.5 °C 31.1 °F /  -0.5 °C 29.90in /  1012.4hPa SSW 5.0mph /  8km/h 8.0mph /  12.9km/h 61% 0.00in /  0mm
17:55 43.6 °F /  6.4 °C 31.0 °F /  -0.6 °C 29.90in /  1012.4hPa SW 4.0mph /  6.4km/h 7.0mph /  11.3km/h 61% 0.00in /  0mm
18:00 43.4 °F /  6.3 °C 30.9 °F /  -0.6 °C 29.91in /  1012.8hPa SSW 2.0mph /  3.2km/h 7.0mph /  11.3km/h 61% 0.00in /  0mm
18:05 43.2 °F /  6.2 °C 31.1 °F /  -0.5 °C 29.91in /  1012.8hPa SW 4.0mph /  6.4km/h 6.0mph /  9.7km/h 62% 0.00in /  0mm
18:10 43.3 °F /  6.3 °C 31.2 °F /  -0.4 °C 29.91in /  1012.8hPa WSW 2.0mph /  3.2km/h 7.0mph /  11.3km/h 62% 0.00in /  0mm
18:15 43.3 °F /  6.3 °C 31.2 °F /  -0.4 °C 29.91in /  1012.8hPa WSW 1.0mph /  1.6km/h 7.0mph /  11.3km/h 62% 0.00in /  0mm
18:20 43.4 °F /  6.3 °C 31.3 °F /  -0.4 °C 29.92in /  1013.1hPa SSW 3.0mph /  4.8km/h 6.0mph /  9.7km/h 62% 0.00in /  0mm
18:25 43.6 °F /  6.4 °C 31.4 °F /  -0.3 °C 29.92in /  1013.1hPa Calm   7.0mph /  11.3km/h 62% 0.00in /  0mm
18:30 43.7 °F /  6.5 °C 31.5 °F /  -0.3 °C 29.92in /  1013.1hPa Calm   7.0mph /  11.3km/h 62% 0.00in /  0mm
18:35 43.6 °F /  6.4 °C 31.4 °F /  -0.3 °C 29.92in /  1013.1hPa SW 2.0mph /  3.2km/h 5.0mph /  8km/h 62% 0.00in /  0mm
18:45 43.1 °F /  6.2 °C 31.4 °F /  -0.3 °C 29.92in /  1013.1hPa South 3.0mph /  4.8km/h 7.0mph /  11.3km/h 63% 0.00in /  0mm
18:50 42.9 °F /  6.1 °C 31.2 °F /  -0.4 °C 29.93in /  1013.4hPa SSW 4.0mph /  6.4km/h 7.0mph /  11.3km/h 63% 0.00in /  0mm
18:55 42.9 °F /  6.1 °C 31.2 °F /  -0.4 °C 29.93in /  1013.4hPa SSW 3.0mph /  4.8km/h 7.0mph /  11.3km/h 63% 0.00in /  0mm
19:00 42.9 °F /  6.1 °C 31.2 °F /  -0.4 °C 29.93in /  1013.4hPa SSW 4.0mph /  6.4km/h 10.0mph /  16.1km/h 63% 0.00in /  0mm
19:05 42.9 °F /  6.1 °C 31.2 °F /  -0.4 °C 29.93in /  1013.4hPa SSW 1.0mph /  1.6km/h 10.0mph /  16.1km/h 63% 0.00in /  0mm
19:10 42.9 °F /  6.1 °C 31.2 °F /  -0.4 °C 29.93in /  1013.4hPa Calm   7.0mph /  11.3km/h 63% 0.00in /  0mm
19:15 42.7 °F /  5.9 °C 31.0 °F /  -0.6 °C 29.93in /  1013.4hPa SSW 3.0mph /  4.8km/h 7.0mph /  11.3km/h 63% 0.00in /  0mm
19:20 42.6 °F /  5.9 °C 31.3 °F /  -0.4 °C 29.93in /  1013.4hPa SSW 4.0mph /  6.4km/h 7.0mph /  11.3km/h 64% 0.00in /  0mm
19:25 42.5 °F /  5.8 °C 31.2 °F /  -0.4 °C 29.93in /  1013.4hPa SSW 2.0mph /  3.2km/h 7.0mph /  11.3km/h 64% 0.00in /  0mm
19:30 42.3 °F /  5.7 °C 31.0 °F /  -0.6 °C 29.94in /  1013.8hPa SSW 1.0mph /  1.6km/h 7.0mph /  11.3km/h 64% 0.00in /  0mm
19:35 42.4 °F /  5.8 °C 31.1 °F /  -0.5 °C 29.94in /  1013.8hPa SSW 3.0mph /  4.8km/h 6.0mph /  9.7km/h 64% 0.00in /  0mm
19:40 42.5 °F /  5.8 °C 31.2 °F /  -0.4 °C 29.94in /  1013.8hPa SW 2.0mph /  3.2km/h 6.0mph /  9.7km/h 64% 0.00in /  0mm
19:45 42.5 °F /  5.8 °C 31.2 °F /  -0.4 °C 29.94in /  1013.8hPa SW 1.0mph /  1.6km/h 6.0mph /  9.7km/h 64% 0.00in /  0mm
19:50 42.6 °F /  5.9 °C 31.3 °F /  -0.4 °C 29.94in /  1013.8hPa SSW 3.0mph /  4.8km/h 7.0mph /  11.3km/h 64% 0.00in /  0mm
19:55 42.6 °F /  5.9 °C 31.3 °F /  -0.4 °C 29.94in /  1013.8hPa SSW 1.0mph /  1.6km/h 7.0mph /  11.3km/h 64% 0.00in /  0mm
20:00 42.4 °F /  5.8 °C 31.1 °F /  -0.5 °C 29.94in /  1013.8hPa SSW 1.0mph /  1.6km/h 6.0mph /  9.7km/h 64% 0.00in /  0mm
20:05 42.2 °F /  5.7 °C 30.9 °F /  -0.6 °C 29.94in /  1013.8hPa SSW 2.0mph /  3.2km/h 6.0mph /  9.7km/h 64% 0.00in /  0mm
20:10 42.1 °F /  5.6 °C 31.2 °F /  -0.4 °C 29.94in /  1013.8hPa SSW 2.0mph /  3.2km/h 5.0mph /  8km/h 65% 0.00in /  0mm
20:15 42.0 °F /  5.6 °C 31.1 °F /  -0.5 °C 29.94in /  1013.8hPa Calm   6.0mph /  9.7km/h 65% 0.00in /  0mm
20:20 41.9 °F /  5.5 °C 31.0 °F /  -0.6 °C 29.95in /  1014.1hPa SW 1.0mph /  1.6km/h 6.0mph /  9.7km/h 65% 0.00in /  0mm
20:25 41.5 °F /  5.3 °C 30.6 °F /  -0.8 °C 29.95in /  1014.1hPa SSW 2.0mph /  3.2km/h 6.0mph /  9.7km/h 65% 0.00in /  0mm
20:30 41.3 °F /  5.2 °C 30.8 °F /  -0.7 °C 29.95in /  1014.1hPa Calm   6.0mph /  9.7km/h 66% 0.00in /  0mm
20:35 41.1 °F /  5.1 °C 30.6 °F /  -0.8 °C 29.95in /  1014.1hPa SSW 2.0mph /  3.2km/h 6.0mph /  9.7km/h 66% 0.00in /  0mm
20:40 41.1 °F /  5.1 °C 30.6 °F /  -0.8 °C 29.95in /  1014.1hPa SSW 3.0mph /  4.8km/h 6.0mph /  9.7km/h 66% 0.00in /  0mm
20:45 40.9 °F /  4.9 °C 30.8 °F /  -0.7 °C 29.95in /  1014.1hPa SSW 2.0mph /  3.2km/h 6.0mph /  9.7km/h 67% 0.00in /  0mm
20:50 40.9 °F /  4.9 °C 30.8 °F /  -0.7 °C 29.95in /  1014.1hPa SSW 2.0mph /  3.2km/h 6.0mph /  9.7km/h 67% 0.00in /  0mm
20:55 41.1 °F /  5.1 °C 30.6 °F /  -0.8 °C 29.95in /  1014.1hPa SSW 3.0mph /  4.8km/h 6.0mph /  9.7km/h 66% 0.00in /  0mm
21:00 41.2 °F /  5.1 °C 30.7 °F /  -0.7 °C 29.96in /  1014.4hPa SSW 3.0mph /  4.8km/h 7.0mph /  11.3km/h 66% 0.00in /  0mm
21:05 41.4 °F /  5.2 °C 30.9 °F /  -0.6 °C 29.96in /  1014.4hPa SW 3.0mph /  4.8km/h 7.0mph /  11.3km/h 66% 0.00in /  0mm
21:10 41.5 °F /  5.3 °C 31.0 °F /  -0.6 °C 29.95in /  1014.1hPa SSW 4.0mph /  6.4km/h 6.0mph /  9.7km/h 66% 0.00in /  0mm
21:15 41.9 °F /  5.5 °C 31.4 °F /  -0.3 °C 29.95in /  1014.1hPa SSW 4.0mph /  6.4km/h 8.0mph /  12.9km/h 66% 0.00in /  0mm
21:20 42.1 °F /  5.6 °C 31.2 °F /  -0.4 °C 29.95in /  1014.1hPa SSW 3.0mph /  4.8km/h 8.0mph /  12.9km/h 65% 0.00in /  0mm
21:25 42.1 °F /  5.6 °C 31.2 °F /  -0.4 °C 29.96in /  1014.4hPa SSW 4.0mph /  6.4km/h 7.0mph /  11.3km/h 65% 0.00in /  0mm
21:30 42.2 °F /  5.7 °C 31.3 °F /  -0.4 °C 29.95in /  1014.1hPa SSW 1.0mph /  1.6km/h 7.0mph /  11.3km/h 65% 0.00in /  0mm
21:35 42.0 °F /  5.6 °C 31.1 °F /  -0.5 °C 29.96in /  1014.4hPa South 2.0mph /  3.2km/h 7.0mph /  11.3km/h 65% 0.00in /  0mm
21:40 41.9 °F /  5.5 °C 31.0 °F /  -0.6 °C 29.95in /  1014.1hPa SSW 4.0mph /  6.4km/h 7.0mph /  11.3km/h 65% 0.00in /  0mm
21:45 41.9 °F /  5.5 °C 31.0 °F /  -0.6 °C 29.95in /  1014.1hPa SSW 2.0mph /  3.2km/h 7.0mph /  11.3km/h 65% 0.00in /  0mm
21:50 41.7 °F /  5.4 °C 30.8 °F /  -0.7 °C 29.96in /  1014.4hPa SSW 4.0mph /  6.4km/h 7.0mph /  11.3km/h 65% 0.00in /  0mm
21:55 41.6 °F /  5.3 °C 31.1 °F /  -0.5 °C 29.96in /  1014.4hPa SSW 3.0mph /  4.8km/h 7.0mph /  11.3km/h 66% 0.00in /  0mm
22:00 41.5 °F /  5.3 °C 31.0 °F /  -0.6 °C 29.96in /  1014.4hPa SSW 1.0mph /  1.6km/h 6.0mph /  9.7km/h 66% 0.00in /  0mm
22:05 41.4 °F /  5.2 °C 30.9 °F /  -0.6 °C 29.96in /  1014.4hPa SSW 3.0mph /  4.8km/h 6.0mph /  9.7km/h 66% 0.00in /  0mm
22:10 41.5 °F /  5.3 °C 31.0 °F /  -0.6 °C 29.96in /  1014.4hPa SSW 4.0mph /  6.4km/h 7.0mph /  11.3km/h 66% 0.00in /  0mm
22:15 41.8 °F /  5.4 °C 31.3 °F /  -0.4 °C 29.96in /  1014.4hPa SSW 5.0mph /  8km/h 8.0mph /  12.9km/h 66% 0.00in /  0mm
22:20 42.0 °F /  5.6 °C 31.5 °F /  -0.3 °C 29.96in /  1014.4hPa SSW 3.0mph /  4.8km/h 8.0mph /  12.9km/h 66% 0.00in /  0mm
22:25 42.0 °F /  5.6 °C 31.5 °F /  -0.3 °C 29.96in /  1014.4hPa SSW 4.0mph /  6.4km/h 8.0mph /  12.9km/h 66% 0.00in /  0mm
22:30 42.3 °F /  5.7 °C 31.4 °F /  -0.3 °C 29.95in /  1014.1hPa SSW 5.0mph /  8km/h 8.0mph /  12.9km/h 65% 0.00in /  0mm
22:35 42.5 °F /  5.8 °C 31.6 °F /  -0.2 °C 29.95in /  1014.1hPa SSW 2.0mph /  3.2km/h 8.0mph /  12.9km/h 65% 0.00in /  0mm
22:40 42.6 °F /  5.9 °C 31.3 °F /  -0.4 °C 29.96in /  1014.4hPa SSW 3.0mph /  4.8km/h 9.0mph /  14.5km/h 64% 0.00in /  0mm
22:45 42.6 °F /  5.9 °C 31.3 °F /  -0.4 °C 29.96in /  1014.4hPa SSW 3.0mph /  4.8km/h 9.0mph /  14.5km/h 64% 0.00in /  0mm
22:50 42.6 °F /  5.9 °C 31.3 °F /  -0.4 °C 29.96in /  1014.4hPa SSW 2.0mph /  3.2km/h 7.0mph /  11.3km/h 64% 0.00in /  0mm
22:55 42.6 °F /  5.9 °C 31.3 °F /  -0.4 °C 29.95in /  1014.1hPa SSW 5.0mph /  8km/h 8.0mph /  12.9km/h 64% 0.00in /  0mm
23:00 42.5 °F /  5.8 °C 31.6 °F /  -0.2 °C 29.96in /  1014.4hPa SSW 3.0mph /  4.8km/h 8.0mph /  12.9km/h 65% 0.00in /  0mm
23:05 42.2 °F /  5.7 °C 31.3 °F /  -0.4 °C 29.96in /  1014.4hPa SSW 3.0mph /  4.8km/h 8.0mph /  12.9km/h 65% 0.00in /  0mm
23:10 41.9 °F /  5.5 °C 31.0 °F /  -0.6 °C 29.96in /  1014.4hPa SSW 3.0mph /  4.8km/h 6.0mph /  9.7km/h 65% 0.00in /  0mm
23:15 41.5 °F /  5.3 °C 30.6 °F /  -0.8 °C 29.96in /  1014.4hPa SSW 3.0mph /  4.8km/h 7.0mph /  11.3km/h 65% 0.00in /  0mm
23:20 41.3 °F /  5.2 °C 30.8 °F /  -0.7 °C 29.97in /  1014.8hPa SSW 3.0mph /  4.8km/h 7.0mph /  11.3km/h 66% 0.00in /  0mm
23:25 41.1 °F /  5.1 °C 30.6 °F /  -0.8 °C 29.97in /  1014.8hPa SSW 3.0mph /  4.8km/h 7.0mph /  11.3km/h 66% 0.00in /  0mm
23:30 41.0 °F /  5 °C 30.9 °F /  -0.6 °C 29.96in /  1014.4hPa SSW 4.0mph /  6.4km/h 9.0mph /  14.5km/h 67% 0.00in /  0mm
23:35 40.8 °F /  4.9 °C 30.7 °F /  -0.7 °C 29.96in /  1014.4hPa SSW 5.0mph /  8km/h 9.0mph /  14.5km/h 67% 0.00in /  0mm
23:40 40.6 °F /  4.8 °C 30.5 °F /  -0.8 °C 29.96in /  1014.4hPa SSW 3.0mph /  4.8km/h 8.0mph /  12.9km/h 67% 0.00in /  0mm
23:45 40.6 °F /  4.8 °C 30.9 °F /  -0.6 °C 29.96in /  1014.4hPa SW 4.0mph /  6.4km/h 8.0mph /  12.9km/h 68% 0.00in /  0mm
23:50 40.6 °F /  4.8 °C 30.5 °F /  -0.8 °C 29.96in /  1014.4hPa SSW 4.0mph /  6.4km/h 8.0mph /  12.9km/h 67% 0.00in /  0mm
23:55 41.0 °F /  5 °C 30.9 °F /  -0.6 °C 29.96in /  1014.4hPa SSW 4.0mph /  6.4km/h 8.0mph /  12.9km/h 67% 0.00in /  0mm
Westford Weather
Compliments of Weather Underground

 
 
Current Radar Loop:

Copyright © WestfordWeather.net 2007-2014. All rights reserved.